sensor_id;sensor_type;location;lat;lon;timestamp;P1;durP1;ratioP1;P2;durP2;ratioP2
67074;SDS011;53990;50.334;18.640;2022-11-20T00:01:14;179.90;;;85.20;;
67074;SDS011;53990;50.334;18.640;2022-11-20T00:03:42;175.70;;;83.90;;
67074;SDS011;53990;50.334;18.640;2022-11-20T00:06:12;179.50;;;85.30;;
67074;SDS011;53990;50.334;18.640;2022-11-20T00:08:39;175.00;;;82.90;;
67074;SDS011;53990;50.334;18.640;2022-11-20T00:11:09;177.70;;;84.10;;
67074;SDS011;53990;50.334;18.640;2022-11-20T00:13:37;169.40;;;83.90;;
67074;SDS011;53990;50.334;18.640;2022-11-20T00:16:06;178.40;;;84.50;;
67074;SDS011;53990;50.334;18.640;2022-11-20T00:18:34;168.70;;;84.30;;
67074;SDS011;53990;50.334;18.640;2022-11-20T00:21:20;181.10;;;83.20;;
67074;SDS011;53990;50.334;18.640;2022-11-20T00:23:49;163.10;;;77.30;;
67074;SDS011;53990;50.334;18.640;2022-11-20T00:26:18;181.90;;;86.10;;
67074;SDS011;53990;50.334;18.640;2022-11-20T00:28:50;172.00;;;83.00;;
67074;SDS011;53990;50.334;18.640;2022-11-20T00:31:19;168.30;;;83.20;;
67074;SDS011;53990;50.334;18.640;2022-11-20T00:33:46;179.70;;;85.20;;
67074;SDS011;53990;50.334;18.640;2022-11-20T00:36:19;181.80;;;86.60;;
67074;SDS011;53990;50.334;18.640;2022-11-20T00:38:46;193.80;;;91.30;;
67074;SDS011;53990;50.334;18.640;2022-11-20T00:41:15;200.60;;;94.40;;
67074;SDS011;53990;50.334;18.640;2022-11-20T00:43:42;199.50;;;94.20;;
67074;SDS011;53990;50.334;18.640;2022-11-20T00:46:18;202.50;;;94.50;;
67074;SDS011;53990;50.334;18.640;2022-11-20T00:48:46;203.90;;;94.80;;
67074;SDS011;53990;50.334;18.640;2022-11-20T00:51:16;207.30;;;97.20;;
67074;SDS011;53990;50.334;18.640;2022-11-20T00:53:44;211.10;;;95.00;;
67074;SDS011;53990;50.334;18.640;2022-11-20T00:56:14;216.30;;;103.60;;
67074;SDS011;53990;50.334;18.640;2022-11-20T00:58:43;203.10;;;98.50;;
67074;SDS011;53990;50.334;18.640;2022-11-20T01:01:14;214.80;;;99.90;;
67074;SDS011;53990;50.334;18.640;2022-11-20T01:03:44;207.10;;;95.30;;
67074;SDS011;53990;50.334;18.640;2022-11-20T01:06:16;215.10;;;97.50;;
67074;SDS011;53990;50.334;18.640;2022-11-20T01:08:44;207.30;;;100.00;;
67074;SDS011;53990;50.334;18.640;2022-11-20T01:11:14;203.20;;;97.30;;
67074;SDS011;53990;50.334;18.640;2022-11-20T01:13:44;208.70;;;101.80;;
67074;SDS011;53990;50.334;18.640;2022-11-20T01:16:17;217.80;;;102.20;;
67074;SDS011;53990;50.334;18.640;2022-11-20T01:18:47;210.90;;;99.10;;
67074;SDS011;53990;50.334;18.640;2022-11-20T01:21:20;213.40;;;99.50;;
67074;SDS011;53990;50.334;18.640;2022-11-20T01:23:48;215.00;;;101.70;;
67074;SDS011;53990;50.334;18.640;2022-11-20T01:26:22;214.00;;;101.00;;
67074;SDS011;53990;50.334;18.640;2022-11-20T01:28:49;215.50;;;102.30;;
67074;SDS011;53990;50.334;18.640;2022-11-20T01:31:22;204.00;;;98.60;;
67074;SDS011;53990;50.334;18.640;2022-11-20T01:33:52;211.20;;;101.40;;
67074;SDS011;53990;50.334;18.640;2022-11-20T01:36:21;214.20;;;101.80;;
67074;SDS011;53990;50.334;18.640;2022-11-20T01:38:53;220.70;;;103.60;;
67074;SDS011;53990;50.334;18.640;2022-11-20T01:41:22;212.00;;;100.20;;
67074;SDS011;53990;50.334;18.640;2022-11-20T01:44:11;214.10;;;102.70;;
67074;SDS011;53990;50.334;18.640;2022-11-20T01:46:40;207.90;;;101.30;;
67074;SDS011;53990;50.334;18.640;2022-11-20T01:49:20;207.30;;;99.20;;
67074;SDS011;53990;50.334;18.640;2022-11-20T01:51:52;220.10;;;100.50;;
67074;SDS011;53990;50.334;18.640;2022-11-20T01:54:24;230.20;;;103.00;;
67074;SDS011;53990;50.334;18.640;2022-11-20T01:56:55;214.10;;;104.50;;
67074;SDS011;53990;50.334;18.640;2022-11-20T01:59:25;212.20;;;100.60;;
67074;SDS011;53990;50.334;18.640;2022-11-20T02:01:53;206.60;;;99.10;;
67074;SDS011;53990;50.334;18.640;2022-11-20T02:04:21;220.70;;;102.80;;
67074;SDS011;53990;50.334;18.640;2022-11-20T02:06:55;212.00;;;103.10;;
67074;SDS011;53990;50.334;18.640;2022-11-20T02:09:24;212.40;;;102.00;;
67074;SDS011;53990;50.334;18.640;2022-11-20T02:11:52;226.60;;;106.00;;
67074;SDS011;53990;50.334;18.640;2022-11-20T02:14:21;213.80;;;102.40;;
67074;SDS011;53990;50.334;18.640;2022-11-20T02:16:49;224.90;;;103.00;;
67074;SDS011;53990;50.334;18.640;2022-11-20T02:19:29;216.20;;;103.00;;
67074;SDS011;53990;50.334;18.640;2022-11-20T02:22:14;219.80;;;102.10;;
67074;SDS011;53990;50.334;18.640;2022-11-20T02:24:43;216.90;;;106.10;;
67074;SDS011;53990;50.334;18.640;2022-11-20T02:27:13;209.50;;;101.60;;
67074;SDS011;53990;50.334;18.640;2022-11-20T02:29:57;206.00;;;99.90;;
67074;SDS011;53990;50.334;18.640;2022-11-20T02:32:33;213.60;;;101.60;;
67074;SDS011;53990;50.334;18.640;2022-11-20T02:38:00;215.90;;;101.10;;
67074;SDS011;53990;50.334;18.640;2022-11-20T02:40:28;211.30;;;100.80;;
67074;SDS011;53990;50.334;18.640;2022-11-20T02:42:57;196.50;;;96.50;;
67074;SDS011;53990;50.334;18.640;2022-11-20T02:45:24;203.30;;;98.30;;
67074;SDS011;53990;50.334;18.640;2022-11-20T02:47:52;201.00;;;96.10;;
67074;SDS011;53990;50.334;18.640;2022-11-20T02:50:20;205.80;;;99.00;;
67074;SDS011;53990;50.334;18.640;2022-11-20T02:52:47;212.10;;;102.30;;
67074;SDS011;53990;50.334;18.640;2022-11-20T02:55:15;210.00;;;98.70;;
67074;SDS011;53990;50.334;18.640;2022-11-20T02:57:42;210.90;;;100.30;;
67074;SDS011;53990;50.334;18.640;2022-11-20T03:00:09;198.90;;;96.30;;
67074;SDS011;53990;50.334;18.640;2022-11-20T03:02:37;192.30;;;93.40;;
67074;SDS011;53990;50.334;18.640;2022-11-20T03:05:04;195.70;;;97.50;;
67074;SDS011;53990;50.334;18.640;2022-11-20T03:07:31;199.10;;;94.60;;
67074;SDS011;53990;50.334;18.640;2022-11-20T03:09:59;194.90;;;94.80;;
67074;SDS011;53990;50.334;18.640;2022-11-20T03:12:26;204.00;;;94.10;;
67074;SDS011;53990;50.334;18.640;2022-11-20T03:14:53;194.20;;;96.20;;
67074;SDS011;53990;50.334;18.640;2022-11-20T03:17:20;191.50;;;94.30;;
67074;SDS011;53990;50.334;18.640;2022-11-20T03:19:47;186.50;;;97.00;;
67074;SDS011;53990;50.334;18.640;2022-11-20T03:22:14;196.00;;;96.90;;
67074;SDS011;53990;50.334;18.640;2022-11-20T03:24:42;188.10;;;94.30;;
67074;SDS011;53990;50.334;18.640;2022-11-20T03:27:09;203.00;;;99.80;;
67074;SDS011;53990;50.334;18.640;2022-11-20T03:29:36;186.30;;;93.70;;
67074;SDS011;53990;50.334;18.640;2022-11-20T03:32:03;195.10;;;95.40;;
67074;SDS011;53990;50.334;18.640;2022-11-20T03:34:31;200.10;;;98.20;;
67074;SDS011;53990;50.334;18.640;2022-11-20T03:36:58;203.80;;;99.60;;
67074;SDS011;53990;50.334;18.640;2022-11-20T03:39:25;200.70;;;94.70;;
67074;SDS011;53990;50.334;18.640;2022-11-20T03:41:53;195.90;;;97.80;;
67074;SDS011;53990;50.334;18.640;2022-11-20T03:44:21;193.80;;;94.60;;
67074;SDS011;53990;50.334;18.640;2022-11-20T03:46:48;201.90;;;96.70;;
67074;SDS011;53990;50.334;18.640;2022-11-20T03:49:16;195.80;;;95.40;;
67074;SDS011;53990;50.334;18.640;2022-11-20T03:51:43;193.10;;;96.00;;
67074;SDS011;53990;50.334;18.640;2022-11-20T03:54:10;195.40;;;96.00;;
67074;SDS011;53990;50.334;18.640;2022-11-20T03:56:38;185.50;;;95.40;;
67074;SDS011;53990;50.334;18.640;2022-11-20T03:59:06;198.60;;;94.10;;
67074;SDS011;53990;50.334;18.640;2022-11-20T04:01:35;209.30;;;98.90;;
67074;SDS011;53990;50.334;18.640;2022-11-20T04:04:06;201.40;;;98.70;;
67074;SDS011;53990;50.334;18.640;2022-11-20T04:06:36;202.70;;;96.60;;
67074;SDS011;53990;50.334;18.640;2022-11-20T04:09:04;191.00;;;94.50;;
67074;SDS011;53990;50.334;18.640;2022-11-20T04:11:34;193.60;;;95.30;;
67074;SDS011;53990;50.334;18.640;2022-11-20T04:14:03;203.30;;;96.50;;
67074;SDS011;53990;50.334;18.640;2022-11-20T04:16:35;203.80;;;97.30;;
67074;SDS011;53990;50.334;18.640;2022-11-20T04:19:05;191.10;;;95.20;;
67074;SDS011;53990;50.334;18.640;2022-11-20T04:21:33;195.60;;;98.00;;
67074;SDS011;53990;50.334;18.640;2022-11-20T04:24:00;195.30;;;96.60;;
67074;SDS011;53990;50.334;18.640;2022-11-20T04:26:29;207.40;;;100.20;;
67074;SDS011;53990;50.334;18.640;2022-11-20T04:28:57;202.90;;;100.20;;
67074;SDS011;53990;50.334;18.640;2022-11-20T04:31:27;205.60;;;98.10;;
67074;SDS011;53990;50.334;18.640;2022-11-20T04:33:55;199.40;;;97.50;;
67074;SDS011;53990;50.334;18.640;2022-11-20T04:36:27;203.10;;;99.50;;
67074;SDS011;53990;50.334;18.640;2022-11-20T04:39:00;197.50;;;95.90;;
67074;SDS011;53990;50.334;18.640;2022-11-20T04:41:30;199.70;;;99.00;;
67074;SDS011;53990;50.334;18.640;2022-11-20T04:43:59;188.10;;;92.30;;
67074;SDS011;53990;50.334;18.640;2022-11-20T04:46:32;198.00;;;95.90;;
67074;SDS011;53990;50.334;18.640;2022-11-20T04:49:00;195.50;;;93.80;;
67074;SDS011;53990;50.334;18.640;2022-11-20T04:51:27;202.50;;;97.30;;
67074;SDS011;53990;50.334;18.640;2022-11-20T04:53:54;199.30;;;97.00;;
67074;SDS011;53990;50.334;18.640;2022-11-20T04:56:22;185.80;;;93.90;;
67074;SDS011;53990;50.334;18.640;2022-11-20T04:58:49;196.00;;;98.20;;
67074;SDS011;53990;50.334;18.640;2022-11-20T05:01:22;196.20;;;95.00;;
67074;SDS011;53990;50.334;18.640;2022-11-20T05:03:50;191.60;;;93.60;;
67074;SDS011;53990;50.334;18.640;2022-11-20T05:06:20;190.40;;;96.40;;
67074;SDS011;53990;50.334;18.640;2022-11-20T05:08:47;190.40;;;96.00;;
67074;SDS011;53990;50.334;18.640;2022-11-20T05:11:20;197.90;;;94.20;;
67074;SDS011;53990;50.334;18.640;2022-11-20T05:13:49;188.40;;;96.90;;
67074;SDS011;53990;50.334;18.640;2022-11-20T05:16:23;190.20;;;92.70;;
67074;SDS011;53990;50.334;18.640;2022-11-20T05:18:51;195.10;;;94.20;;
67074;SDS011;53990;50.334;18.640;2022-11-20T05:21:20;185.80;;;94.30;;
67074;SDS011;53990;50.334;18.640;2022-11-20T05:23:47;200.40;;;93.00;;
67074;SDS011;53990;50.334;18.640;2022-11-20T05:26:20;186.70;;;93.00;;
67074;SDS011;53990;50.334;18.640;2022-11-20T05:28:49;202.60;;;98.30;;
67074;SDS011;53990;50.334;18.640;2022-11-20T05:31:19;191.00;;;93.00;;
67074;SDS011;53990;50.334;18.640;2022-11-20T05:33:47;183.00;;;89.10;;
67074;SDS011;53990;50.334;18.640;2022-11-20T05:36:15;192.50;;;93.10;;
67074;SDS011;53990;50.334;18.640;2022-11-20T05:38:43;194.30;;;96.60;;
67074;SDS011;53990;50.334;18.640;2022-11-20T05:41:15;189.40;;;91.60;;
67074;SDS011;53990;50.334;18.640;2022-11-20T05:43:45;186.50;;;92.70;;
67074;SDS011;53990;50.334;18.640;2022-11-20T05:46:14;191.80;;;92.10;;
67074;SDS011;53990;50.334;18.640;2022-11-20T05:48:43;194.50;;;93.40;;
67074;SDS011;53990;50.334;18.640;2022-11-20T05:51:14;189.50;;;92.10;;
67074;SDS011;53990;50.334;18.640;2022-11-20T05:53:42;174.00;;;90.20;;
67074;SDS011;53990;50.334;18.640;2022-11-20T05:56:17;182.70;;;91.10;;
67074;SDS011;53990;50.334;18.640;2022-11-20T05:58:46;185.20;;;91.90;;
67074;SDS011;53990;50.334;18.640;2022-11-20T06:01:18;184.70;;;90.30;;
67074;SDS011;53990;50.334;18.640;2022-11-20T06:03:46;188.40;;;91.90;;
67074;SDS011;53990;50.334;18.640;2022-11-20T06:06:15;187.80;;;91.70;;
67074;SDS011;53990;50.334;18.640;2022-11-20T06:08:44;191.50;;;94.00;;
67074;SDS011;53990;50.334;18.640;2022-11-20T06:11:12;185.60;;;90.30;;
67074;SDS011;53990;50.334;18.640;2022-11-20T06:13:41;193.20;;;91.40;;
67074;SDS011;53990;50.334;18.640;2022-11-20T06:16:10;183.10;;;90.70;;
67074;SDS011;53990;50.334;18.640;2022-11-20T06:18:38;190.40;;;90.20;;
67074;SDS011;53990;50.334;18.640;2022-11-20T06:21:11;192.40;;;93.10;;
67074;SDS011;53990;50.334;18.640;2022-11-20T06:23:39;186.70;;;89.90;;
67074;SDS011;53990;50.334;18.640;2022-11-20T06:26:09;174.40;;;90.00;;
67074;SDS011;53990;50.334;18.640;2022-11-20T06:28:37;181.10;;;91.20;;
67074;SDS011;53990;50.334;18.640;2022-11-20T06:31:05;185.50;;;89.50;;
67074;SDS011;53990;50.334;18.640;2022-11-20T06:33:33;177.20;;;86.90;;
67074;SDS011;53990;50.334;18.640;2022-11-20T06:36:02;177.30;;;88.10;;
67074;SDS011;53990;50.334;18.640;2022-11-20T06:38:30;174.60;;;87.30;;
67074;SDS011;53990;50.334;18.640;2022-11-20T06:40:58;181.10;;;85.50;;
67074;SDS011;53990;50.334;18.640;2022-11-20T06:43:26;188.80;;;87.80;;
67074;SDS011;53990;50.334;18.640;2022-11-20T06:45:56;176.00;;;86.80;;
67074;SDS011;53990;50.334;18.640;2022-11-20T06:48:26;185.60;;;91.80;;
67074;SDS011;53990;50.334;18.640;2022-11-20T06:50:54;180.90;;;89.20;;
67074;SDS011;53990;50.334;18.640;2022-11-20T06:53:22;181.50;;;87.40;;
67074;SDS011;53990;50.334;18.640;2022-11-20T06:55:50;173.60;;;87.60;;
67074;SDS011;53990;50.334;18.640;2022-11-20T06:58:18;180.10;;;87.30;;
67074;SDS011;53990;50.334;18.640;2022-11-20T07:00:45;175.20;;;86.60;;
67074;SDS011;53990;50.334;18.640;2022-11-20T07:03:12;177.90;;;86.80;;
67074;SDS011;53990;50.334;18.640;2022-11-20T07:05:40;172.80;;;87.20;;
67074;SDS011;53990;50.334;18.640;2022-11-20T07:08:08;169.30;;;83.70;;
67074;SDS011;53990;50.334;18.640;2022-11-20T07:10:35;175.90;;;88.40;;
67074;SDS011;53990;50.334;18.640;2022-11-20T07:13:03;178.20;;;88.30;;
67074;SDS011;53990;50.334;18.640;2022-11-20T07:15:30;175.40;;;88.40;;
67074;SDS011;53990;50.334;18.640;2022-11-20T07:18:01;166.80;;;83.90;;
67074;SDS011;53990;50.334;18.640;2022-11-20T07:20:28;170.40;;;85.50;;
67074;SDS011;53990;50.334;18.640;2022-11-20T07:22:56;176.60;;;86.90;;
67074;SDS011;53990;50.334;18.640;2022-11-20T07:25:25;160.50;;;84.50;;
67074;SDS011;53990;50.334;18.640;2022-11-20T07:27:57;168.50;;;86.80;;
67074;SDS011;53990;50.334;18.640;2022-11-20T07:30:26;169.50;;;85.60;;
67074;SDS011;53990;50.334;18.640;2022-11-20T07:32:55;172.90;;;88.60;;
67074;SDS011;53990;50.334;18.640;2022-11-20T07:35:24;186.50;;;95.60;;
67074;SDS011;53990;50.334;18.640;2022-11-20T07:37:51;170.80;;;87.20;;
67074;SDS011;53990;50.334;18.640;2022-11-20T07:40:19;176.60;;;89.60;;
67074;SDS011;53990;50.334;18.640;2022-11-20T07:42:52;170.10;;;89.50;;
67074;SDS011;53990;50.334;18.640;2022-11-20T07:45:21;174.50;;;88.50;;
67074;SDS011;53990;50.334;18.640;2022-11-20T07:47:49;179.30;;;92.80;;
67074;SDS011;53990;50.334;18.640;2022-11-20T07:50:16;182.80;;;93.10;;
67074;SDS011;53990;50.334;18.640;2022-11-20T07:52:43;173.60;;;87.40;;
67074;SDS011;53990;50.334;18.640;2022-11-20T07:55:11;168.30;;;86.60;;
67074;SDS011;53990;50.334;18.640;2022-11-20T07:57:38;176.60;;;92.30;;
67074;SDS011;53990;50.334;18.640;2022-11-20T08:00:07;170.90;;;90.50;;
67074;SDS011;53990;50.334;18.640;2022-11-20T08:02:39;175.90;;;89.70;;
67074;SDS011;53990;50.334;18.640;2022-11-20T08:05:08;172.10;;;90.60;;
67074;SDS011;53990;50.334;18.640;2022-11-20T08:07:40;188.20;;;94.70;;
67074;SDS011;53990;50.334;18.640;2022-11-20T08:10:12;186.30;;;97.10;;
67074;SDS011;53990;50.334;18.640;2022-11-20T08:12:46;177.90;;;95.40;;
67074;SDS011;53990;50.334;18.640;2022-11-20T08:15:32;184.50;;;98.00;;
67074;SDS011;53990;50.334;18.640;2022-11-20T08:18:01;189.30;;;103.30;;
67074;SDS011;53990;50.334;18.640;2022-11-20T08:20:29;197.20;;;103.50;;
67074;SDS011;53990;50.334;18.640;2022-11-20T08:23:00;202.10;;;100.80;;
67074;SDS011;53990;50.334;18.640;2022-11-20T08:25:32;198.00;;;103.80;;
67074;SDS011;53990;50.334;18.640;2022-11-20T08:28:00;197.60;;;101.30;;
67074;SDS011;53990;50.334;18.640;2022-11-20T08:30:29;201.20;;;104.50;;
67074;SDS011;53990;50.334;18.640;2022-11-20T08:33:07;204.30;;;106.70;;
67074;SDS011;53990;50.334;18.640;2022-11-20T08:35:36;201.50;;;104.30;;
67074;SDS011;53990;50.334;18.640;2022-11-20T08:38:05;193.30;;;104.30;;
67074;SDS011;53990;50.334;18.640;2022-11-20T08:40:33;199.40;;;108.70;;
67074;SDS011;53990;50.334;18.640;2022-11-20T08:43:00;186.90;;;102.00;;
67074;SDS011;53990;50.334;18.640;2022-11-20T08:45:28;176.70;;;97.10;;
67074;SDS011;53990;50.334;18.640;2022-11-20T08:48:00;187.40;;;99.20;;
67074;SDS011;53990;50.334;18.640;2022-11-20T08:50:27;188.10;;;101.90;;
67074;SDS011;53990;50.334;18.640;2022-11-20T08:52:54;182.90;;;100.60;;
67074;SDS011;53990;50.334;18.640;2022-11-20T08:55:22;179.10;;;96.70;;
67074;SDS011;53990;50.334;18.640;2022-11-20T08:57:49;169.60;;;91.70;;
67074;SDS011;53990;50.334;18.640;2022-11-20T09:00:16;174.70;;;95.40;;
67074;SDS011;53990;50.334;18.640;2022-11-20T09:02:43;173.20;;;94.70;;
67074;SDS011;53990;50.334;18.640;2022-11-20T09:05:11;169.90;;;94.10;;
67074;SDS011;53990;50.334;18.640;2022-11-20T09:07:38;169.00;;;91.30;;
67074;SDS011;53990;50.334;18.640;2022-11-20T09:10:05;169.70;;;91.00;;
67074;SDS011;53990;50.334;18.640;2022-11-20T09:12:34;174.70;;;93.00;;
67074;SDS011;53990;50.334;18.640;2022-11-20T09:15:02;172.70;;;95.70;;
67074;SDS011;53990;50.334;18.640;2022-11-20T09:17:29;164.00;;;91.00;;
67074;SDS011;53990;50.334;18.640;2022-11-20T09:19:56;169.90;;;94.30;;
67074;SDS011;53990;50.334;18.640;2022-11-20T09:22:23;158.30;;;86.60;;
67074;SDS011;53990;50.334;18.640;2022-11-20T09:24:50;158.00;;;84.70;;
67074;SDS011;53990;50.334;18.640;2022-11-20T09:27:18;142.70;;;78.10;;
67074;SDS011;53990;50.334;18.640;2022-11-20T09:29:49;123.10;;;68.40;;
67074;SDS011;53990;50.334;18.640;2022-11-20T09:32:16;117.40;;;65.30;;
67074;SDS011;53990;50.334;18.640;2022-11-20T09:34:43;107.00;;;61.70;;
67074;SDS011;53990;50.334;18.640;2022-11-20T09:37:10;112.60;;;60.30;;
67074;SDS011;53990;50.334;18.640;2022-11-20T09:39:37;107.00;;;59.50;;
67074;SDS011;53990;50.334;18.640;2022-11-20T09:47:58;110.50;;;60.40;;
67074;SDS011;53990;50.334;18.640;2022-11-20T09:53:20;106.40;;;61.60;;
67074;SDS011;53990;50.334;18.640;2022-11-20T09:55:51;108.30;;;61.80;;
67074;SDS011;53990;50.334;18.640;2022-11-20T09:58:33;109.80;;;64.80;;
67074;SDS011;53990;50.334;18.640;2022-11-20T10:01:15;114.10;;;64.30;;
67074;SDS011;53990;50.334;18.640;2022-11-20T10:04:01;106.80;;;63.60;;
67074;SDS011;53990;50.334;18.640;2022-11-20T10:17:22;102.90;;;62.70;;
67074;SDS011;53990;50.334;18.640;2022-11-20T10:25:53;90.40;;;57.40;;
67074;SDS011;53990;50.334;18.640;2022-11-20T10:28:48;99.60;;;62.00;;
67074;SDS011;53990;50.334;18.640;2022-11-20T10:31:28;81.10;;;51.00;;
67074;SDS011;53990;50.334;18.640;2022-11-20T10:33:59;81.50;;;55.40;;
67074;SDS011;53990;50.334;18.640;2022-11-20T10:36:35;81.70;;;53.60;;
67074;SDS011;53990;50.334;18.640;2022-11-20T10:41:39;75.90;;;51.40;;
67074;SDS011;53990;50.334;18.640;2022-11-20T10:47:04;69.90;;;49.30;;
67074;SDS011;53990;50.334;18.640;2022-11-20T10:49:33;64.90;;;47.30;;
67074;SDS011;53990;50.334;18.640;2022-11-20T10:52:25;61.90;;;46.00;;
67074;SDS011;53990;50.334;18.640;2022-11-20T10:54:59;65.60;;;49.30;;
67074;SDS011;53990;50.334;18.640;2022-11-20T11:00:14;65.60;;;51.80;;
67074;SDS011;53990;50.334;18.640;2022-11-20T11:02:49;68.20;;;53.20;;
67074;SDS011;53990;50.334;18.640;2022-11-20T11:05:27;68.50;;;53.30;;
67074;SDS011;53990;50.334;18.640;2022-11-20T11:07:59;69.20;;;55.60;;
67074;SDS011;53990;50.334;18.640;2022-11-20T11:10:52;73.10;;;57.80;;
67074;SDS011;53990;50.334;18.640;2022-11-20T11:13:28;75.30;;;59.90;;
67074;SDS011;53990;50.334;18.640;2022-11-20T11:15:57;71.50;;;57.40;;
67074;SDS011;53990;50.334;18.640;2022-11-20T11:18:32;74.00;;;58.00;;
67074;SDS011;53990;50.334;18.640;2022-11-20T11:21:03;72.90;;;59.60;;
67074;SDS011;53990;50.334;18.640;2022-11-20T11:23:36;75.40;;;60.40;;
67074;SDS011;53990;50.334;18.640;2022-11-20T11:26:17;77.90;;;63.60;;
67074;SDS011;53990;50.334;18.640;2022-11-20T11:28:56;78.00;;;63.50;;
67074;SDS011;53990;50.334;18.640;2022-11-20T11:31:27;76.80;;;62.70;;
67074;SDS011;53990;50.334;18.640;2022-11-20T11:34:16;76.80;;;62.70;;
67074;SDS011;53990;50.334;18.640;2022-11-20T11:36:57;73.90;;;59.50;;
67074;SDS011;53990;50.334;18.640;2022-11-20T11:39:26;73.30;;;60.50;;
67074;SDS011;53990;50.334;18.640;2022-11-20T11:41:54;72.40;;;59.30;;
67074;SDS011;53990;50.334;18.640;2022-11-20T11:44:30;71.70;;;57.90;;
67074;SDS011;53990;50.334;18.640;2022-11-20T11:47:26;71.10;;;57.20;;
67074;SDS011;53990;50.334;18.640;2022-11-20T11:55:26;69.50;;;55.00;;
67074;SDS011;53990;50.334;18.640;2022-11-20T12:03:55;57.00;;;47.40;;
67074;SDS011;53990;50.334;18.640;2022-11-20T12:06:26;50.40;;;41.90;;
67074;SDS011;53990;50.334;18.640;2022-11-20T12:09:13;54.10;;;43.60;;
67074;SDS011;53990;50.334;18.640;2022-11-20T12:11:53;51.00;;;41.70;;
67074;SDS011;53990;50.334;18.640;2022-11-20T12:14:43;50.80;;;41.40;;
67074;SDS011;53990;50.334;18.640;2022-11-20T12:17:13;51.20;;;38.80;;
67074;SDS011;53990;50.334;18.640;2022-11-20T12:19:41;52.20;;;39.40;;
67074;SDS011;53990;50.334;18.640;2022-11-20T12:22:31;50.00;;;38.90;;
67074;SDS011;53990;50.334;18.640;2022-11-20T12:28:38;48.60;;;37.30;;
67074;SDS011;53990;50.334;18.640;2022-11-20T12:30:44;49.70;;;39.10;;
67074;SDS011;53990;50.334;18.640;2022-11-20T12:33:29;50.10;;;37.70;;
67074;SDS011;53990;50.334;18.640;2022-11-20T12:36:33;49.30;;;36.50;;
67074;SDS011;53990;50.334;18.640;2022-11-20T12:42:00;49.10;;;38.10;;
67074;SDS011;53990;50.334;18.640;2022-11-20T12:56:41;50.20;;;37.70;;
67074;SDS011;53990;50.334;18.640;2022-11-20T13:01:58;49.70;;;34.90;;
67074;SDS011;53990;50.334;18.640;2022-11-20T13:07:05;49.60;;;32.30;;
67074;SDS011;53990;50.334;18.640;2022-11-20T13:09:39;49.10;;;34.80;;
67074;SDS011;53990;50.334;18.640;2022-11-20T13:17:34;46.20;;;29.60;;
67074;SDS011;53990;50.334;18.640;2022-11-20T13:20:06;44.50;;;27.90;;
67074;SDS011;53990;50.334;18.640;2022-11-20T13:22:44;39.80;;;25.30;;
67074;SDS011;53990;50.334;18.640;2022-11-20T13:27:53;45.70;;;27.00;;
67074;SDS011;53990;50.334;18.640;2022-11-20T13:30:23;42.50;;;26.20;;
67074;SDS011;53990;50.334;18.640;2022-11-20T13:32:56;42.40;;;25.50;;
67074;SDS011;53990;50.334;18.640;2022-11-20T13:35:54;43.70;;;24.70;;
67074;SDS011;53990;50.334;18.640;2022-11-20T13:38:14;42.50;;;24.90;;
67074;SDS011;53990;50.334;18.640;2022-11-20T13:40:56;53.10;;;27.80;;
67074;SDS011;53990;50.334;18.640;2022-11-20T13:43:37;46.50;;;25.00;;
67074;SDS011;53990;50.334;18.640;2022-11-20T13:46:06;42.50;;;23.90;;
67074;SDS011;53990;50.334;18.640;2022-11-20T13:48:38;45.20;;;25.30;;
67074;SDS011;53990;50.334;18.640;2022-11-20T13:51:15;42.00;;;23.30;;
67074;SDS011;53990;50.334;18.640;2022-11-20T13:59:49;45.50;;;24.90;;
67074;SDS011;53990;50.334;18.640;2022-11-20T14:02:21;44.00;;;24.00;;
67074;SDS011;53990;50.334;18.640;2022-11-20T14:04:51;40.90;;;22.70;;
67074;SDS011;53990;50.334;18.640;2022-11-20T14:07:31;42.80;;;24.20;;
67074;SDS011;53990;50.334;18.640;2022-11-20T14:09:59;42.20;;;24.40;;
67074;SDS011;53990;50.334;18.640;2022-11-20T14:12:32;43.00;;;23.80;;
67074;SDS011;53990;50.334;18.640;2022-11-20T14:15:00;40.90;;;23.40;;
67074;SDS011;53990;50.334;18.640;2022-11-20T14:17:33;43.40;;;24.90;;
67074;SDS011;53990;50.334;18.640;2022-11-20T14:20:12;41.30;;;24.20;;
67074;SDS011;53990;50.334;18.640;2022-11-20T14:22:49;42.90;;;24.00;;
67074;SDS011;53990;50.334;18.640;2022-11-20T14:27:56;47.30;;;26.00;;
67074;SDS011;53990;50.334;18.640;2022-11-20T14:30:43;46.00;;;25.80;;
67074;SDS011;53990;50.334;18.640;2022-11-20T14:35:53;50.60;;;26.60;;
67074;SDS011;53990;50.334;18.640;2022-11-20T14:38:25;51.00;;;28.10;;
67074;SDS011;53990;50.334;18.640;2022-11-20T14:40:54;48.30;;;26.70;;
67074;SDS011;53990;50.334;18.640;2022-11-20T14:43:28;47.60;;;26.80;;
67074;SDS011;53990;50.334;18.640;2022-11-20T14:46:13;50.30;;;28.80;;
67074;SDS011;53990;50.334;18.640;2022-11-20T14:48:46;52.70;;;29.00;;
67074;SDS011;53990;50.334;18.640;2022-11-20T14:51:35;55.10;;;29.30;;
67074;SDS011;53990;50.334;18.640;2022-11-20T14:54:20;55.20;;;28.90;;
67074;SDS011;53990;50.334;18.640;2022-11-20T14:57:00;55.70;;;30.50;;
67074;SDS011;53990;50.334;18.640;2022-11-20T14:59:32;60.20;;;31.90;;
67074;SDS011;53990;50.334;18.640;2022-11-20T15:02:06;66.20;;;32.50;;
67074;SDS011;53990;50.334;18.640;2022-11-20T15:04:47;58.50;;;31.40;;
67074;SDS011;53990;50.334;18.640;2022-11-20T15:07:25;64.50;;;32.10;;
67074;SDS011;53990;50.334;18.640;2022-11-20T15:10:23;63.10;;;34.10;;
67074;SDS011;53990;50.334;18.640;2022-11-20T15:12:55;63.70;;;33.60;;
67074;SDS011;53990;50.334;18.640;2022-11-20T15:15:31;60.30;;;32.10;;
67074;SDS011;53990;50.334;18.640;2022-11-20T15:17:59;71.10;;;37.60;;
67074;SDS011;53990;50.334;18.640;2022-11-20T15:20:32;65.50;;;34.10;;
67074;SDS011;53990;50.334;18.640;2022-11-20T15:23:00;68.30;;;34.80;;
67074;SDS011;53990;50.334;18.640;2022-11-20T15:25:27;71.40;;;37.20;;
67074;SDS011;53990;50.334;18.640;2022-11-20T15:27:56;69.60;;;36.50;;
67074;SDS011;53990;50.334;18.640;2022-11-20T15:30:23;69.40;;;35.00;;
67074;SDS011;53990;50.334;18.640;2022-11-20T15:32:51;65.20;;;35.80;;
67074;SDS011;53990;50.334;18.640;2022-11-20T15:35:18;73.40;;;37.60;;
67074;SDS011;53990;50.334;18.640;2022-11-20T15:37:45;70.00;;;35.60;;
67074;SDS011;53990;50.334;18.640;2022-11-20T15:40:13;70.70;;;35.80;;
67074;SDS011;53990;50.334;18.640;2022-11-20T15:42:40;68.00;;;35.80;;
67074;SDS011;53990;50.334;18.640;2022-11-20T15:45:47;67.60;;;35.10;;
67074;SDS011;53990;50.334;18.640;2022-11-20T15:48:19;65.90;;;35.00;;
67074;SDS011;53990;50.334;18.640;2022-11-20T15:50:52;62.30;;;33.80;;
67074;SDS011;53990;50.334;18.640;2022-11-20T15:53:21;61.20;;;32.00;;